Time;durP1;ratioP1;P1;durP2;ratioP2;P2;SDS_P1;SDS_P2;PMS_P1;PMS_P2;Temp;Humidity;BMP_temperature;BMP_pressure;BME280_temperature;BME280_humidity;BME280_pressure;Samples;Min_cycle;Max_cycle;Signal;HPM_P1;HPM_P2
2024/02/17 00:02:03;;;;;;;13.55;3.00;;;12.40;95.00;;;;;;4147786;28;20070;-58
2024/02/17 00:04:05;;;;;;;12.30;2.70;;;12.50;95.10;;;;;;4147897;28;20042;-58
2024/02/17 00:06:07;;;;;;;15.48;3.15;;;12.50;94.90;;;;;;4148249;28;20493;-58
2024/02/17 00:08:10;;;;;;;12.25;3.22;;;12.50;94.60;;;;;;4147563;28;20049;-58
2024/02/17 00:10:12;;;;;;;15.20;3.78;;;12.50;94.80;;;;;;4147948;28;20050;-58
2024/02/17 00:12:14;;;;;;;14.32;3.40;;;12.50;94.80;;;;;;4150849;28;20107;-58
2024/02/17 00:14:18;;;;;;;16.98;4.20;;;12.50;94.80;;;;;;4150823;28;20082;-58
2024/02/17 00:16:20;;;;;;;14.93;3.13;;;12.50;94.70;;;;;;4150916;28;20054;-58
2024/02/17 00:18:28;;;;;;;16.45;3.55;;;12.50;95.10;;;;;;4150987;28;20073;-57
2024/02/17 00:20:30;;;;;;;15.55;3.47;;;12.60;94.80;;;;;;4150838;28;20046;-58
2024/02/17 00:22:33;;;;;;;12.63;3.00;;;12.50;94.50;;;;;;4150634;28;20469;-57
2024/02/17 00:24:35;;;;;;;12.90;3.30;;;12.40;94.70;;;;;;4150710;28;20046;-58
2024/02/17 00:26:38;;;;;;;16.90;4.03;;;12.40;94.40;;;;;;4150979;28;20057;-58
2024/02/17 00:28:40;;;;;;;13.30;3.45;;;12.50;94.70;;;;;;4150979;28;20393;-58
2024/02/17 00:30:43;;;;;;;16.17;3.47;;;12.60;95.20;;;;;;4150943;28;20050;-58
2024/02/17 00:32:45;;;;;;;17.33;3.45;;;12.60;95.10;;;;;;4150953;28;20062;-59
2024/02/17 00:34:48;;;;;;;12.73;3.20;;;12.60;95.00;;;;;;4150885;28;20050;-58
2024/02/17 00:36:50;;;;;;;10.48;3.10;;;12.70;95.20;;;;;;4150190;28;20050;-58
2024/02/17 00:38:53;;;;;;;13.77;3.22;;;12.60;94.50;;;;;;4144452;28;20045;-58
2024/02/17 00:40:56;;;;;;;14.02;3.20;;;12.60;94.60;;;;;;4167337;28;20050;-58
2024/02/17 00:42:58;;;;;;;11.75;2.58;;;12.60;94.40;;;;;;4167313;28;20084;-58
2024/02/17 00:45:00;;;;;;;16.67;3.30;;;12.60;94.40;;;;;;4167151;28;20376;-58
2024/02/17 00:47:02;;;;;;;10.32;2.92;;;12.60;94.00;;;;;;4167379;28;20111;-61
2024/02/17 00:49:05;;;;;;;13.98;2.97;;;12.60;94.70;;;;;;4167408;28;20103;-59
2024/02/17 00:51:09;;;;;;;8.00;2.60;;;12.60;93.70;;;;;;4166970;28;20421;-58
2024/02/17 00:53:14;;;;;;;17.58;3.22;;;12.50;93.70;;;;;;4166900;28;20493;-57
2024/02/17 00:55:17;;;;;;;14.90;2.78;;;12.60;93.70;;;;;;4166654;28;20054;-57
2024/02/17 00:57:19;;;;;;;9.68;2.60;;;12.60;92.80;;;;;;4166460;28;20476;-57
2024/02/17 00:59:21;;;;;;;12.85;2.95;;;12.50;93.20;;;;;;4166687;28;20140;-57
2024/02/17 01:01:23;;;;;;;16.05;3.33;;;12.60;93.70;;;;;;4166495;28;20503;-58
2024/02/17 01:03:39;;;;;;;12.68;2.88;;;12.60;94.10;;;;;;4166368;28;20547;-58
2024/02/17 01:05:42;;;;;;;15.43;3.22;;;12.60;93.70;;;;;;4166268;28;20049;-57
2024/02/17 01:07:46;;;;;;;15.80;3.60;;;12.50;93.90;;;;;;4165946;28;20455;-57
2024/02/17 01:09:48;;;;;;;13.85;2.67;;;12.60;93.60;;;;;;4166063;28;20057;-62
2024/02/17 01:11:51;;;;;;;17.20;3.15;;;12.60;93.80;;;;;;4166606;28;20041;-57
2024/02/17 01:13:54;;;;;;;14.07;2.85;;;12.60;94.30;;;;;;4166423;28;20053;-57
2024/02/17 01:15:58;;;;;;;13.85;3.00;;;12.60;94.60;;;;;;4148724;28;20563;-57
2024/02/17 01:18:00;;;;;;;14.60;2.78;;;12.60;93.90;;;;;;4166044;28;20045;-57
2024/02/17 01:20:03;;;;;;;13.13;2.55;;;12.60;93.70;;;;;;4165904;28;20510;-58
2024/02/17 01:22:05;;;;;;;14.50;3.05;;;12.60;93.70;;;;;;4164708;28;20489;-58
2024/02/17 01:24:09;;;;;;;13.05;2.78;;;12.70;93.80;;;;;;4166361;28;20136;-58
2024/02/17 01:26:12;;;;;;;13.32;3.28;;;12.60;93.40;;;;;;4166308;28;20104;-59
2024/02/17 01:28:14;;;;;;;10.82;2.65;;;12.60;94.10;;;;;;4166946;28;20120;-67
2024/02/17 01:30:16;;;;;;;17.38;3.20;;;12.60;93.50;;;;;;4166897;28;20053;-58
2024/02/17 01:32:19;;;;;;;16.50;3.50;;;12.60;92.80;;;;;;4166123;28;20064;-58
2024/02/17 01:34:21;;;;;;;15.50;2.80;;;12.60;93.20;;;;;;4166032;28;20386;-58
2024/02/17 01:36:23;;;;;;;14.13;3.38;;;12.60;93.60;;;;;;4165779;28;20049;-59
2024/02/17 01:38:25;;;;;;;13.32;3.15;;;12.70;93.50;;;;;;4166003;28;20481;-58
2024/02/17 01:40:32;;;;;;;16.58;3.78;;;12.70;93.70;;;;;;4166270;28;20045;-58
2024/02/17 01:42:34;;;;;;;10.25;2.75;;;12.70;93.10;;;;;;4166080;28;20135;-58
2024/02/17 01:44:37;;;;;;;8.85;2.50;;;12.70;93.20;;;;;;4165872;28;20051;-58
2024/02/17 01:46:39;;;;;;;10.88;3.08;;;12.60;93.40;;;;;;4165720;28;20045;-58
2024/02/17 01:48:42;;;;;;;11.90;2.53;;;12.60;93.50;;;;;;4165603;28;20046;-58
2024/02/17 01:50:45;;;;;;;12.05;3.10;;;12.50;92.70;;;;;;4165689;28;20057;-57
2024/02/17 01:52:47;;;;;;;13.00;3.47;;;12.50;93.00;;;;;;4165810;28;20057;-59
2024/02/17 01:54:50;;;;;;;11.02;2.90;;;12.50;92.70;;;;;;4166123;28;20045;-57
2024/02/17 01:56:55;;;;;;;12.80;3.28;;;12.50;92.80;;;;;;4165554;28;20140;-58
2024/02/17 01:58:57;;;;;;;13.52;2.92;;;12.50;92.80;;;;;;4165345;28;20437;-58
2024/02/17 02:01:00;;;;;;;14.02;3.00;;;12.50;93.30;;;;;;4147991;28;20050;-58
2024/02/17 02:03:04;;;;;;;18.10;3.15;;;12.50;93.00;;;;;;4165580;28;20045;-58
2024/02/17 02:05:06;;;;;;;11.27;2.70;;;12.40;93.10;;;;;;4147395;28;20080;-58
2024/02/17 02:07:08;;;;;;;16.33;3.10;;;12.40;93.50;;;;;;4165391;28;20072;-58
2024/02/17 02:09:14;;;;;;;15.98;2.95;;;12.40;93.10;;;;;;4165504;28;20049;-57
2024/02/17 02:11:17;;;;;;;7.10;2.03;;;12.40;92.90;;;;;;4165494;28;20112;-58
2024/02/17 02:13:21;;;;;;;11.73;2.38;;;12.50;93.70;;;;;;4165370;28;20046;-58
2024/02/17 02:15:23;;;;;;;13.73;2.50;;;12.50;93.60;;;;;;4165891;28;20049;-59
2024/02/17 02:17:41;;;;;;;11.10;2.72;;;12.60;93.70;;;;;;4166016;28;20104;-59
2024/02/17 02:19:44;;;;;;;11.25;2.63;;;12.60;92.50;;;;;;4165486;28;20080;-59
2024/02/17 02:21:46;;;;;;;12.60;2.70;;;12.60;93.30;;;;;;4149006;28;20133;-61
2024/02/17 02:23:48;;;;;;;17.02;2.35;;;12.60;93.10;;;;;;4165764;28;20128;-60
2024/02/17 02:25:52;;;;;;;9.85;2.70;;;12.70;93.10;;;;;;4165375;28;20067;-57
2024/02/17 02:27:55;;;;;;;13.52;2.45;;;12.70;92.80;;;;;;4165295;28;20050;-58
2024/02/17 02:29:58;;;;;;;9.07;2.10;;;12.70;93.70;;;;;;4165009;28;20064;-58
2024/02/17 02:32:01;;;;;;;12.95;2.85;;;12.60;92.40;;;;;;4165277;28;20064;-58
2024/02/17 02:34:03;;;;;;;15.52;2.85;;;12.60;93.00;;;;;;4164641;28;20096;-58
2024/02/17 02:36:06;;;;;;;14.25;3.00;;;12.60;93.30;;;;;;4165068;28;20116;-57
2024/02/17 02:38:08;;;;;;;11.88;2.75;;;12.70;93.20;;;;;;4165389;28;20042;-57
2024/02/17 02:40:11;;;;;;;15.38;3.03;;;12.70;93.10;;;;;;4165010;28;20132;-58
2024/02/17 02:42:14;;;;;;;14.88;2.70;;;12.70;93.00;;;;;;4164708;28;20048;-58
2024/02/17 02:44:17;;;;;;;18.77;3.33;;;12.70;93.60;;;;;;4164885;28;20045;-60
2024/02/17 02:46:19;;;;;;;12.77;3.40;;;12.70;93.10;;;;;;4164813;28;20441;-57
2024/02/17 02:48:21;;;;;;;11.82;2.92;;;12.70;92.80;;;;;;4164372;28;20049;-58
2024/02/17 02:50:24;;;;;;;12.57;2.53;;;12.70;92.50;;;;;;4164651;28;20092;-58
2024/02/17 02:52:27;;;;;;;10.38;2.35;;;12.80;93.00;;;;;;4164958;28;20103;-59
2024/02/17 02:54:29;;;;;;;12.23;2.70;;;12.80;93.30;;;;;;4164734;28;20493;-58
2024/02/17 02:56:31;;;;;;;12.23;2.28;;;12.80;93.30;;;;;;4165138;28;20049;-58
2024/02/17 02:58:34;;;;;;;12.52;2.88;;;12.80;93.50;;;;;;4165425;28;20065;-59
2024/02/17 03:00:37;;;;;;;16.73;2.90;;;12.70;93.00;;;;;;4165163;28;20073;-57
2024/02/17 03:02:39;;;;;;;11.38;2.45;;;12.70;92.90;;;;;;4164586;28;20052;-58
2024/02/17 03:04:41;;;;;;;14.65;2.90;;;12.70;93.60;;;;;;4164552;28;20420;-58
2024/02/17 03:06:44;;;;;;;10.98;2.33;;;12.70;92.70;;;;;;4164435;28;20065;-58
2024/02/17 03:08:46;;;;;;;13.75;2.85;;;12.80;93.20;;;;;;4164364;28;20120;-58
2024/02/17 03:10:48;;;;;;;13.88;2.90;;;12.80;93.30;;;;;;4164344;28;20126;-58
2024/02/17 03:12:50;;;;;;;15.40;2.75;;;12.80;93.10;;;;;;4164448;28;20124;-58
2024/02/17 03:14:54;;;;;;;11.52;2.63;;;12.70;93.20;;;;;;4164484;28;20045;-58
2024/02/17 03:16:56;;;;;;;11.77;2.78;;;12.70;92.70;;;;;;4163838;28;20480;-57
2024/02/17 03:18:58;;;;;;;11.85;2.40;;;12.70;93.20;;;;;;4164093;28;20076;-58
2024/02/17 03:21:00;;;;;;;11.18;2.53;;;12.70;92.70;;;;;;4164695;28;20459;-58
2024/02/17 03:23:03;;;;;;;10.45;2.75;;;12.70;93.10;;;;;;4146618;28;20073;-58
2024/02/17 03:25:05;;;;;;;10.75;2.00;;;12.80;93.20;;;;;;4164337;28;20095;-58
2024/02/17 03:27:08;;;;;;;11.98;2.70;;;12.80;92.90;;;;;;4146744;28;20105;-57
2024/02/17 03:29:10;;;;;;;11.68;2.08;;;12.70;93.30;;;;;;4164285;28;20128;-58
2024/02/17 03:31:13;;;;;;;13.10;2.35;;;12.70;93.00;;;;;;4163869;28;20049;-59
2024/02/17 03:33:16;;;;;;;9.20;2.10;;;12.60;93.10;;;;;;4163948;28;20057;-58
2024/02/17 03:35:18;;;;;;;12.35;2.20;;;12.70;93.50;;;;;;4164242;28;20045;-58
2024/02/17 03:37:21;;;;;;;8.30;2.40;;;12.70;93.50;;;;;;4146584;28;20048;-57
2024/02/17 03:39:23;;;;;;;17.45;3.55;;;12.70;93.70;;;;;;4163931;28;20519;-59
2024/02/17 03:41:28;;;;;;;11.02;2.95;;;12.70;93.40;;;;;;4164217;28;20111;-58
2024/02/17 03:43:30;;;;;;;9.80;2.20;;;12.70;93.60;;;;;;4164455;28;20416;-57
2024/02/17 03:45:32;;;;;;;12.10;2.45;;;12.70;93.50;;;;;;4162894;28;20411;-57
2024/02/17 03:47:35;;;;;;;13.55;3.13;;;12.70;93.70;;;;;;4164013;28;20041;-57
2024/02/17 03:49:38;;;;;;;12.05;2.70;;;12.70;93.60;;;;;;4164281;28;20045;-59
2024/02/17 03:51:40;;;;;;;9.95;2.78;;;12.80;93.40;;;;;;4163981;28;20124;-58
2024/02/17 03:53:42;;;;;;;12.43;2.67;;;12.70;93.10;;;;;;4164331;28;20416;-58
2024/02/17 03:55:44;;;;;;;10.88;2.90;;;12.70;93.40;;;;;;4164313;28;20069;-58
2024/02/17 03:57:46;;;;;;;11.27;2.83;;;12.70;92.90;;;;;;4146489;28;20149;-57
2024/02/17 03:59:49;;;;;;;11.90;2.63;;;12.70;93.20;;;;;;4163291;28;20053;-58
2024/02/17 04:01:55;;;;;;;10.95;2.90;;;12.70;93.50;;;;;;4163788;28;20063;-59
2024/02/17 04:04:03;;;;;;;9.25;2.40;;;12.70;93.30;;;;;;4164259;28;20325;-58
2024/02/17 04:06:06;;;;;;;12.52;2.30;;;12.70;93.90;;;;;;4164157;28;20099;-58
2024/02/17 04:08:08;;;;;;;16.00;3.35;;;12.80;93.90;;;;;;4163710;28;20463;-58
2024/02/17 04:10:10;;;;;;;10.73;2.53;;;12.70;93.60;;;;;;4163874;28;20476;-57
2024/02/17 04:12:13;;;;;;;13.30;2.35;;;12.80;93.70;;;;;;4163530;28;20054;-58
2024/02/17 04:14:15;;;;;;;10.10;2.63;;;12.70;93.50;;;;;;4163365;28;20111;-58
2024/02/17 04:16:17;;;;;;;12.48;2.33;;;12.70;94.20;;;;;;4163993;28;20048;-58
2024/02/17 04:18:19;;;;;;;10.32;2.45;;;12.80;93.60;;;;;;4163682;28;20053;-58
2024/02/17 04:20:23;;;;;;;13.05;2.58;;;12.70;93.60;;;;;;4163714;28;20091;-58
2024/02/17 04:22:25;;;;;;;8.50;1.97;;;12.70;93.80;;;;;;4163805;28;20128;-59
2024/02/17 04:24:27;;;;;;;8.43;2.40;;;12.70;93.80;;;;;;4164366;28;20413;-58
2024/02/17 04:26:30;;;;;;;14.90;2.50;;;12.80;93.60;;;;;;4164543;28;20055;-58
2024/02/17 04:28:33;;;;;;;8.68;1.95;;;12.80;93.40;;;;;;4163345;28;20056;-58
2024/02/17 04:30:35;;;;;;;11.50;2.30;;;12.80;93.70;;;;;;4163813;28;20045;-59
2024/02/17 04:32:37;;;;;;;9.93;2.30;;;12.90;93.60;;;;;;4164097;28;20223;-58
2024/02/17 04:34:40;;;;;;;16.42;2.75;;;12.80;93.00;;;;;;4164496;28;20045;-64
2024/02/17 04:36:43;;;;;;;10.75;2.40;;;12.80;93.30;;;;;;4164528;28;20049;-58
2024/02/17 04:38:46;;;;;;;13.27;2.67;;;12.70;93.30;;;;;;4164196;28;20042;-59
2024/02/17 04:40:48;;;;;;;10.98;2.30;;;12.70;94.20;;;;;;4163306;28;20046;-61
2024/02/17 04:42:52;;;;;;;12.68;2.08;;;12.70;93.60;;;;;;4163464;28;20065;-57
2024/02/17 04:44:55;;;;;;;8.43;2.30;;;12.80;93.40;;;;;;4163831;28;20104;-57
2024/02/17 04:46:58;;;;;;;14.75;2.65;;;12.80;93.30;;;;;;4164562;28;20042;-58
2024/02/17 04:49:00;;;;;;;12.00;2.30;;;12.70;93.50;;;;;;4164418;28;20054;-58
2024/02/17 04:51:03;;;;;;;13.30;2.05;;;12.70;93.20;;;;;;4164720;28;20038;-58
2024/02/17 04:53:06;;;;;;;10.77;2.20;;;12.70;94.00;;;;;;4147498;28;20578;-63
2024/02/17 04:55:09;;;;;;;11.52;2.58;;;12.80;93.60;;;;;;4147563;28;20125;-60
2024/02/17 04:57:11;;;;;;;15.05;2.97;;;12.80;93.50;;;;;;4166221;28;20413;-57
2024/02/17 04:59:13;;;;;;;14.18;2.60;;;12.80;93.50;;;;;;4149342;28;20441;-60
2024/02/17 05:01:15;;;;;;;12.48;2.33;;;12.90;93.80;;;;;;4167280;28;20481;-57
2024/02/17 05:03:18;;;;;;;14.00;2.50;;;12.90;93.20;;;;;;4167155;28;20050;-60
2024/02/17 05:05:20;;;;;;;16.38;2.42;;;13.00;93.10;;;;;;4149329;28;20516;-57
2024/02/17 05:07:23;;;;;;;12.52;2.95;;;12.90;92.90;;;;;;4149608;28;20390;-65
2024/02/17 05:09:26;;;;;;;12.40;2.15;;;12.80;93.20;;;;;;4166899;28;20045;-57
2024/02/17 05:11:28;;;;;;;8.23;2.28;;;12.90;93.20;;;;;;4149071;28;20116;-58
2024/02/17 05:13:30;;;;;;;10.35;2.47;;;12.90;93.20;;;;;;4166469;28;20073;-57
2024/02/17 05:15:34;;;;;;;8.48;2.20;;;12.80;93.10;;;;;;4166120;28;20120;-57
2024/02/17 05:17:36;;;;;;;12.10;2.60;;;12.80;93.40;;;;;;4166268;28;20099;-58
2024/02/17 05:19:38;;;;;;;11.13;2.58;;;12.90;93.20;;;;;;4166227;28;20095;-57
2024/02/17 05:21:42;;;;;;;17.55;3.10;;;12.90;93.10;;;;;;4166173;28;20045;-57
2024/02/17 05:23:45;;;;;;;14.40;3.00;;;13.00;92.80;;;;;;4165906;28;20470;-57
2024/02/17 05:25:51;;;;;;;12.75;2.55;;;12.90;92.80;;;;;;4166134;28;20073;-57
2024/02/17 05:27:53;;;;;;;8.38;2.35;;;12.90;93.40;;;;;;4166042;28;20045;-59
2024/02/17 05:29:55;;;;;;;15.45;2.50;;;12.90;93.20;;;;;;4166051;28;20129;-58
2024/02/17 05:31:57;;;;;;;10.05;2.40;;;12.90;93.00;;;;;;4165986;28;20132;-58
2024/02/17 05:34:00;;;;;;;8.63;2.22;;;12.90;93.10;;;;;;4165882;28;20124;-57
2024/02/17 05:36:02;;;;;;;8.65;2.03;;;13.00;93.10;;;;;;4166038;28;20046;-57
2024/02/17 05:38:04;;;;;;;12.05;2.35;;;13.00;93.40;;;;;;4165823;28;20041;-58
2024/02/17 05:40:11;;;;;;;10.70;2.20;;;13.00;93.60;;;;;;4165587;28;20132;-57
2024/02/17 05:42:15;;;;;;;5.53;1.83;;;12.90;93.00;;;;;;4165569;28;20688;-63
2024/02/17 05:44:17;;;;;;;11.02;2.70;;;12.90;93.60;;;;;;4165596;28;20503;-57
2024/02/17 05:46:19;;;;;;;10.52;2.65;;;12.90;93.70;;;;;;4165930;28;20065;-58
2024/02/17 05:48:21;;;;;;;9.23;1.80;;;12.90;93.60;;;;;;4165730;28;20069;-58
2024/02/17 05:50:24;;;;;;;7.60;2.13;;;13.00;93.80;;;;;;4166146;28;20608;-59
2024/02/17 05:52:26;;;;;;;6.15;1.98;;;13.00;93.60;;;;;;4166377;28;20457;-59
2024/02/17 05:54:28;;;;;;;8.85;2.05;;;13.00;93.70;;;;;;4166110;28;20137;-57
2024/02/17 05:56:30;;;;;;;9.38;2.38;;;13.00;94.20;;;;;;4165766;28;20124;-58
2024/02/17 05:58:34;;;;;;;7.80;2.20;;;13.00;93.80;;;;;;4165337;28;20048;-58
2024/02/17 06:00:36;;;;;;;14.98;2.45;;;12.90;94.30;;;;;;4165723;28;20069;-58
2024/02/17 06:02:39;;;;;;;9.73;2.30;;;13.00;94.10;;;;;;4165617;28;20054;-58
2024/02/17 06:04:41;;;;;;;11.60;2.33;;;12.90;93.70;;;;;;4165586;28;20493;-58
2024/02/17 06:06:43;;;;;;;10.30;2.35;;;13.00;93.70;;;;;;4165387;28;20052;-58
2024/02/17 06:08:46;;;;;;;11.73;2.50;;;12.90;93.50;;;;;;4146920;28;20046;-58
2024/02/17 06:10:48;;;;;;;14.80;2.78;;;13.00;94.20;;;;;;4164936;28;20095;-58
2024/02/17 06:12:50;;;;;;;11.40;2.40;;;13.00;93.10;;;;;;4165495;28;20128;-58
2024/02/17 06:14:54;;;;;;;8.27;2.15;;;12.90;93.50;;;;;;4165898;28;20152;-58
2024/02/17 06:16:56;;;;;;;9.65;1.90;;;13.00;93.60;;;;;;4165232;28;20128;-58
2024/02/17 06:21:20;;;;;;;15.77;2.30;;;13.00;93.60;;;;;;4165094;28;20053;-58
2024/02/17 06:23:22;;;;;;;16.23;2.83;;;13.10;93.50;;;;;;4164968;28;20042;-59
2024/02/17 06:25:24;;;;;;;18.42;2.60;;;13.00;93.40;;;;;;4165133;28;20504;-58
2024/02/17 06:27:26;;;;;;;13.15;2.08;;;13.00;93.70;;;;;;4165025;28;20050;-58
2024/02/17 06:29:29;;;;;;;9.75;2.03;;;13.00;92.70;;;;;;4165020;28;20053;-58
2024/02/17 06:31:33;;;;;;;15.10;2.63;;;12.90;92.80;;;;;;4165266;28;20136;-58
2024/02/17 06:33:40;;;;;;;9.35;2.30;;;12.90;93.20;;;;;;4165253;28;20096;-57
2024/02/17 06:35:42;;;;;;;8.93;2.25;;;12.90;93.20;;;;;;4165043;28;20124;-58
2024/02/17 06:37:45;;;;;;;9.88;1.92;;;13.00;93.90;;;;;;4165696;28;20507;-58
2024/02/17 06:39:47;;;;;;;11.77;2.55;;;13.00;93.30;;;;;;4164964;28;20132;-63
2024/02/17 06:41:49;;;;;;;14.32;2.60;;;13.00;93.30;;;;;;4164995;28;20476;-58
2024/02/17 06:43:51;;;;;;;10.52;2.08;;;13.00;93.40;;;;;;4164859;28;20056;-57
2024/02/17 06:45:53;;;;;;;13.00;2.67;;;13.00;93.50;;;;;;4164920;28;20386;-56
2024/02/17 06:47:57;;;;;;;9.82;2.38;;;13.00;93.70;;;;;;4164817;28;20049;-58
2024/02/17 06:49:59;;;;;;;13.65;2.75;;;13.00;93.80;;;;;;4164908;28;20408;-58
2024/02/17 06:52:05;;;;;;;10.02;2.85;;;13.00;94.00;;;;;;4164654;28;20064;-60
2024/02/17 06:54:07;;;;;;;;;;;13.00;93.50;;;;;;4165085;28;20061;-58
2024/02/17 06:56:09;;;;;;;8.35;2.13;;;13.00;93.60;;;;;;4164735;28;19991;-58
2024/02/17 06:58:11;;;;;;;7.72;1.90;;;13.00;94.00;;;;;;4165003;28;20046;-58
2024/02/17 07:00:16;;;;;;;8.70;2.35;;;13.00;93.90;;;;;;4164428;28;20073;-57
2024/02/17 07:02:22;;;;;;;13.18;2.92;;;13.00;93.80;;;;;;4164663;28;20485;-58
2024/02/17 07:04:28;;;;;;;11.32;2.80;;;13.00;93.60;;;;;;4164716;28;20049;-58
2024/02/17 07:06:30;;;;;;;8.13;2.20;;;13.00;94.00;;;;;;4164700;28;20473;-57
2024/02/17 07:08:32;;;;;;;15.15;3.08;;;13.00;93.70;;;;;;4164049;28;20045;-58
2024/02/17 07:10:35;;;;;;;9.73;2.20;;;13.00;94.30;;;;;;4164674;28;20080;-57
2024/02/17 07:12:38;;;;;;;13.32;2.95;;;13.00;93.60;;;;;;4164572;28;20485;-58
2024/02/17 07:14:40;;;;;;;10.68;2.42;;;13.00;93.40;;;;;;4164477;28;20441;-58
2024/02/17 07:16:43;;;;;;;11.27;2.50;;;13.00;93.60;;;;;;4164723;28;20057;-58
2024/02/17 07:18:45;;;;;;;15.27;2.90;;;13.10;94.00;;;;;;4164459;28;20132;-58
2024/02/17 07:20:48;;;;;;;11.27;2.85;;;13.00;94.20;;;;;;4164834;28;20061;-65
2024/02/17 07:22:56;;;;;;;12.35;2.92;;;13.00;93.90;;;;;;4164254;28;20069;-58
2024/02/17 07:24:58;;;;;;;9.70;2.28;;;13.00;94.40;;;;;;4164396;28;20111;-58
2024/02/17 07:27:00;;;;;;;14.18;2.95;;;13.10;94.70;;;;;;4165152;28;20049;-61
2024/02/17 07:29:02;;;;;;;8.95;2.42;;;13.00;94.40;;;;;;4166112;28;20408;-65
2024/02/17 07:31:05;;;;;;;9.65;2.92;;;13.00;94.70;;;;;;4165267;28;20049;-58
2024/02/17 07:33:09;;;;;;;14.07;3.13;;;13.00;94.50;;;;;;4164732;28;20061;-58
2024/02/17 07:35:11;;;;;;;12.73;2.72;;;13.00;93.80;;;;;;4164852;28;20073;-60
2024/02/17 07:37:15;;;;;;;14.20;3.20;;;13.00;93.70;;;;;;4164954;28;20084;-66
2024/02/17 07:39:17;;;;;;;12.52;2.92;;;13.10;94.30;;;;;;4164455;28;20041;-60
2024/02/17 07:41:20;;;;;;;13.98;3.03;;;13.10;93.90;;;;;;4164822;28;20049;-58
2024/02/17 07:43:22;;;;;;;12.35;2.90;;;13.20;93.30;;;;;;4164787;28;20053;-58
2024/02/17 07:45:24;;;;;;;14.75;3.15;;;13.20;93.70;;;;;;4164201;28;20050;-58
2024/02/17 07:47:26;;;;;;;12.57;2.58;;;13.20;93.90;;;;;;4164449;28;20455;-57
2024/02/17 07:49:28;;;;;;;12.52;2.80;;;13.20;94.30;;;;;;4164046;28;20049;-58
2024/02/17 07:51:31;;;;;;;15.65;2.85;;;13.30;94.60;;;;;;4163721;28;20049;-59
2024/02/17 07:53:34;;;;;;;14.80;3.25;;;13.30;94.20;;;;;;4164038;28;20064;-60
2024/02/17 07:55:36;;;;;;;13.10;3.13;;;13.40;93.80;;;;;;4164513;28;20049;-58
2024/02/17 07:57:38;;;;;;;9.48;2.55;;;13.40;93.20;;;;;;4163982;28;20164;-59
2024/02/17 07:59:40;;;;;;;14.75;3.05;;;13.50;93.40;;;;;;4163859;28;20048;-57
2024/02/17 08:01:42;;;;;;;10.07;2.85;;;13.50;93.00;;;;;;4163969;28;20185;-57
2024/02/17 08:03:45;;;;;;;15.77;2.88;;;13.60;93.50;;;;;;4163928;28;20136;-59
2024/02/17 08:05:48;;;;;;;18.45;2.90;;;13.60;93.90;;;;;;4146628;28;20046;-58
2024/02/17 08:07:50;;;;;;;17.40;3.33;;;13.80;93.40;;;;;;4163671;28;20096;-58
2024/02/17 08:09:54;;;;;;;17.13;3.40;;;13.80;92.80;;;;;;4163977;28;20053;-57
2024/02/17 08:11:56;;;;;;;15.93;2.35;;;13.90;94.00;;;;;;4163834;28;20049;-58
2024/02/17 08:13:58;;;;;;;12.25;3.13;;;13.80;93.20;;;;;;4164343;28;20084;-58
2024/02/17 08:16:00;;;;;;;14.38;2.78;;;13.80;93.40;;;;;;4163756;28;20469;-57
2024/02/17 08:18:03;;;;;;;12.50;2.42;;;13.80;93.30;;;;;;4163865;28;20476;-57
2024/02/17 08:20:06;;;;;;;16.33;2.75;;;13.70;92.90;;;;;;4163522;28;20115;-58
2024/02/17 08:22:08;;;;;;;10.30;2.35;;;13.60;93.70;;;;;;4163382;28;20057;-57
2024/02/17 08:24:10;;;;;;;9.05;2.38;;;13.70;93.10;;;;;;4163603;28;20055;-58
2024/02/17 08:26:17;;;;;;;11.35;2.53;;;13.70;92.80;;;;;;4163332;28;20477;-57
2024/02/17 08:28:19;;;;;;;7.68;2.08;;;13.80;92.90;;;;;;4164002;28;20050;-57
2024/02/17 08:30:21;;;;;;;8.80;2.00;;;13.90;92.90;;;;;;4163889;28;20046;-57
2024/02/17 08:32:23;;;;;;;10.18;2.60;;;14.00;92.30;;;;;;4166099;28;20500;-57
2024/02/17 08:34:26;;;;;;;12.88;2.28;;;14.10;92.40;;;;;;4166766;28;20485;-58
2024/02/17 08:36:28;;;;;;;12.15;2.03;;;14.20;92.50;;;;;;4149053;28;20058;-57
2024/02/17 08:38:30;;;;;;;13.10;2.38;;;14.20;92.00;;;;;;4166902;28;20092;-60
2024/02/17 08:40:32;;;;;;;9.55;2.38;;;14.20;92.00;;;;;;4167144;28;20046;-59
2024/02/17 08:42:35;;;;;;;11.40;2.53;;;14.20;92.10;;;;;;4167011;28;20477;-60
2024/02/17 08:44:38;;;;;;;12.27;2.55;;;14.20;92.00;;;;;;4167012;28;20046;-58
2024/02/17 08:46:40;;;;;;;10.65;3.10;;;14.20;92.10;;;;;;4167146;28;20049;-58
2024/02/17 08:48:42;;;;;;;8.60;2.20;;;14.10;91.50;;;;;;4166988;28;20497;-57
2024/02/17 08:50:44;;;;;;;11.00;2.83;;;14.20;92.20;;;;;;4166710;28;20076;-58
2024/02/17 08:52:46;;;;;;;12.32;2.58;;;14.20;91.80;;;;;;4166672;28;20147;-58
2024/02/17 08:54:49;;;;;;;11.80;2.90;;;14.30;91.90;;;;;;4166869;28;20103;-59
2024/02/17 08:56:51;;;;;;;12.55;2.58;;;14.30;92.50;;;;;;4166512;28;20056;-58
2024/02/17 08:58:54;;;;;;;9.07;2.47;;;14.30;92.40;;;;;;4166231;28;20042;-58
2024/02/17 09:00:57;;;;;;;18.88;3.10;;;14.30;92.90;;;;;;4166654;28;20045;-58
2024/02/17 09:03:00;;;;;;;12.32;2.63;;;14.40;92.20;;;;;;4166354;28;20544;-58
2024/02/17 09:05:06;;;;;;;13.60;2.80;;;14.50;92.40;;;;;;4148454;28;20082;-58
2024/02/17 09:07:08;;;;;;;16.60;3.38;;;14.50;92.60;;;;;;4166450;28;20053;-61
2024/02/17 09:09:10;;;;;;;10.10;2.92;;;14.50;91.40;;;;;;4166183;28;20057;-57
2024/02/17 09:11:12;;;;;;;10.95;2.70;;;14.50;92.00;;;;;;4166407;28;20393;-59
2024/02/17 09:13:17;;;;;;;10.20;2.00;;;14.50;91.70;;;;;;4166303;28;20049;-58
2024/02/17 09:15:21;;;;;;;13.38;2.67;;;14.50;91.70;;;;;;4166239;28;20048;-58
2024/02/17 09:17:24;;;;;;;14.43;2.97;;;14.60;91.50;;;;;;4166168;28;20069;-57
2024/02/17 09:19:26;;;;;;;10.60;2.80;;;14.60;91.70;;;;;;4165702;28;20133;-58
2024/02/17 09:21:28;;;;;;;13.10;2.08;;;14.60;92.60;;;;;;4166051;28;20054;-58
2024/02/17 09:23:31;;;;;;;8.02;2.15;;;14.60;91.60;;;;;;4166218;28;20400;-58
2024/02/17 09:25:33;;;;;;;9.32;2.20;;;14.50;91.40;;;;;;4165955;28;20052;-58
2024/02/17 09:27:35;;;;;;;10.13;1.95;;;14.40;91.00;;;;;;4165934;28;20049;-58
2024/02/17 09:29:37;;;;;;;4.75;1.58;;;14.20;90.80;;;;;;4148358;28;20048;-58
2024/02/17 09:31:41;;;;;;;7.30;1.55;;;14.30;91.80;;;;;;4165903;28;20124;-57
2024/02/17 09:33:43;;;;;;;11.48;2.30;;;14.50;91.50;;;;;;4147172;28;20104;-59
2024/02/17 09:35:45;;;;;;;12.02;2.35;;;14.40;91.40;;;;;;4176723;28;20041;-59
2024/02/17 09:37:48;;;;;;;8.95;2.28;;;14.40;91.30;;;;;;4176392;28;20084;-58
2024/02/17 09:39:50;;;;;;;10.43;2.35;;;14.40;91.50;;;;;;4176863;28;20049;-60
2024/02/17 09:41:53;;;;;;;10.70;2.20;;;14.20;91.00;;;;;;4158322;28;20053;-57
2024/02/17 09:43:55;;;;;;;9.27;1.70;;;14.20;91.90;;;;;;4163843;28;20037;-58
2024/02/17 09:45:57;;;;;;;13.23;2.58;;;14.20;91.80;;;;;;4155994;28;20041;-58
2024/02/17 09:48:02;;;;;;;9.23;2.03;;;14.20;91.60;;;;;;4173750;28;20543;-62
2024/02/17 09:50:05;;;;;;;8.88;2.00;;;14.20;91.60;;;;;;4159541;28;20082;-60
2024/02/17 09:52:09;;;;;;;6.32;1.63;;;14.40;91.60;;;;;;4168063;28;20095;-58
2024/02/17 09:54:15;;;;;;;12.45;2.50;;;14.40;91.00;;;;;;4164075;28;20156;-58
2024/02/17 09:56:18;;;;;;;14.55;3.03;;;14.40;90.70;;;;;;4159999;28;20073;-58
2024/02/17 09:58:23;;;;;;;13.73;2.20;;;14.30;90.80;;;;;;4164761;28;20037;-56
2024/02/17 10:00:25;;;;;;;17.77;2.95;;;14.30;90.80;;;;;;4165725;28;20045;-58
2024/02/17 10:02:27;;;;;;;9.00;1.88;;;14.20;90.90;;;;;;4150747;28;20049;-60
2024/02/17 10:04:32;;;;;;;11.93;2.10;;;14.10;90.70;;;;;;4157491;28;20052;-60
2024/02/17 10:06:35;;;;;;;11.38;2.50;;;14.20;91.50;;;;;;4158625;28;20906;-59
2024/02/17 10:08:38;;;;;;;9.57;2.45;;;14.30;91.60;;;;;;4158949;28;20399;-59
2024/02/17 10:10:43;;;;;;;16.38;2.78;;;14.50;91.50;;;;;;4144291;28;20065;-57
2024/02/17 10:12:50;;;;;;;13.45;2.35;;;14.50;91.20;;;;;;4158475;28;20046;-58
2024/02/17 10:14:53;;;;;;;9.40;2.35;;;14.50;91.30;;;;;;4158690;28;20088;-56
2024/02/17 10:16:58;;;;;;;11.45;2.13;;;14.60;91.40;;;;;;4168993;28;20045;-62
2024/02/17 10:19:04;;;;;;;8.65;2.13;;;14.50;90.90;;;;;;4163580;28;20050;-59
2024/02/17 10:21:10;;;;;;;12.73;2.38;;;14.60;90.90;;;;;;4169343;28;20041;-58
2024/02/17 10:23:12;;;;;;;17.77;2.53;;;14.60;90.90;;;;;;4166401;28;20496;-57
2024/02/17 10:25:15;;;;;;;10.43;2.22;;;14.50;90.60;;;;;;4164362;28;20046;-59
2024/02/17 10:27:18;;;;;;;8.02;1.85;;;14.60;91.00;;;;;;4156905;28;20042;-58
2024/02/17 10:29:20;;;;;;;11.77;2.42;;;14.70;91.10;;;;;;4157635;28;20160;-58
2024/02/17 10:31:22;;;;;;;8.38;2.50;;;14.80;91.10;;;;;;4160712;28;20441;-57
2024/02/17 10:33:25;;;;;;;19.52;3.25;;;14.70;90.80;;;;;;4162820;28;20053;-61
2024/02/17 10:35:29;;;;;;;10.13;2.50;;;14.80;90.80;;;;;;4162325;28;20037;-63